Time;durP1;ratioP1;P1;durP2;ratioP2;P2;SDS_P1;SDS_P2;PMS_P1;PMS_P2;Temp;Humidity;BMP_temperature;BMP_pressure;BME280_temperature;BME280_humidity;BME280_pressure;Samples;Min_cycle;Max_cycle;Signal;HPM_P1;HPM_P2
2023/05/26 00:02:19;;;;;;;;;;;11.80;58.70;;;;;;5067977;28;20341;-65
2023/05/26 00:04:44;;;;;;;;;;;11.80;58.50;;;;;;5053806;28;19924;-65
2023/05/26 00:07:10;;;;;;;;;;;11.70;58.30;;;;;;5048570;28;19916;-64
2023/05/26 00:09:36;;;;;;;;;;;11.70;58.20;;;;;;5056457;28;19917;-65
2023/05/26 00:12:01;;;;;;;;;;;11.60;58.50;;;;;;5069670;28;19974;-64
2023/05/26 00:14:27;;;;;;;;;;;11.60;58.70;;;;;;5053911;28;19912;-64
2023/05/26 00:16:55;;;;;;;;;;;11.50;58.60;;;;;;5063570;28;20154;-64
2023/05/26 00:19:21;;;;;;;;;;;11.50;58.40;;;;;;5058484;28;19913;-65
2023/05/26 00:21:46;;;;;;;;;;;11.50;58.40;;;;;;5069425;28;19919;-65
2023/05/26 00:24:12;;;;;;;;;;;11.40;58.30;;;;;;5053442;28;19917;-65
2023/05/26 00:26:37;;;;;;;;;;;11.40;58.50;;;;;;5060416;28;19920;-65
2023/05/26 00:29:03;;;;;;;;;;;11.40;58.50;;;;;;5062005;28;19920;-65
2023/05/26 00:31:29;;;;;;;;;;;11.30;58.60;;;;;;5067856;28;19917;-65
2023/05/26 00:33:54;;;;;;;;;;;11.30;59.00;;;;;;5054238;28;19917;-65
2023/05/26 00:36:20;;;;;;;;;;;11.30;59.10;;;;;;5062729;28;20364;-65
2023/05/26 00:38:45;;;;;;;;;;;11.30;59.30;;;;;;5061746;28;20372;-65
2023/05/26 00:41:11;;;;;;;;;;;11.40;59.50;;;;;;5065152;28;19962;-65
2023/05/26 00:43:36;;;;;;;;;;;11.30;59.20;;;;;;5056058;28;19927;-65
2023/05/26 00:46:02;;;;;;;;;;;11.30;59.20;;;;;;5056461;28;19961;-65
2023/05/26 00:48:27;;;;;;;;;;;11.30;59.10;;;;;;5065472;28;19920;-65
2023/05/26 00:50:53;;;;;;;;;;;11.20;59.00;;;;;;5062574;28;19919;-65
2023/05/26 00:53:18;;;;;;;;;;;11.20;59.20;;;;;;5058180;28;19935;-65
2023/05/26 00:55:44;;;;;;;;;;;11.20;59.70;;;;;;5067714;28;20050;-65
2023/05/26 00:58:10;;;;;;;;;;;11.20;59.50;;;;;;5056665;28;19916;-65
2023/05/26 01:00:36;;;;;;;;;;;11.20;59.60;;;;;;5064676;28;19915;-65
2023/05/26 01:03:03;;;;;;;;;;;11.20;59.90;;;;;;5060138;28;21039;-65
2023/05/26 01:05:29;;;;;;;;;;;11.20;59.90;;;;;;5052393;28;20340;-65
2023/05/26 01:07:54;;;;;;;;;;;11.20;59.90;;;;;;5068269;28;20007;-65
2023/05/26 01:10:20;;;;;;;;;;;11.20;60.10;;;;;;5056496;28;19908;-65
2023/05/26 01:12:45;;;;;;;;;;;11.20;60.10;;;;;;5062930;28;19912;-65
2023/05/26 01:15:12;;;;;;;;;;;11.20;60.20;;;;;;5051602;28;19956;-65
2023/05/26 01:17:55;;;;;;;;;;;11.20;59.90;;;;;;5068826;28;19924;-65
2023/05/26 01:20:33;;;;;;;;;;;11.10;59.70;;;;;;5057776;28;19916;-65
2023/05/26 01:23:05;;;;;;;;;;;11.10;59.40;;;;;;5059737;28;19927;-65
2023/05/26 01:25:48;;;;;;;;;;;11.00;59.20;;;;;;5052469;28;19913;-65
2023/05/26 01:28:19;;;;;;;;;;;10.90;59.30;;;;;;5032020;28;19923;-65
2023/05/26 01:30:45;;;;;;;;;;;10.80;59.60;;;;;;5057750;28;20248;-65
2023/05/26 01:33:10;;;;;;;;;;;10.80;59.70;;;;;;5058732;28;19917;-66
2023/05/26 01:35:36;;;;;;;;;;;10.80;59.50;;;;;;5062293;28;20023;-65
2023/05/26 01:38:01;;;;;;;;;;;10.80;59.40;;;;;;5054605;28;19974;-66
2023/05/26 01:40:27;;;;;;;;;;;10.70;59.40;;;;;;5063979;28;19923;-65
2023/05/26 01:43:03;;;;;;;;;;;10.70;59.30;;;;;;5060476;28;19925;-66
2023/05/26 01:45:32;;;;;;;;;;;10.70;59.20;;;;;;5051359;28;19917;-65
2023/05/26 01:47:59;;;;;;;;;;;10.60;59.10;;;;;;5053782;28;20327;-65
2023/05/26 01:50:28;;;;;;;;;;;10.60;59.30;;;;;;5063489;28;19913;-65
2023/05/26 01:52:56;;;;;;;;;;;10.50;59.20;;;;;;5061180;28;19963;-69
2023/05/26 01:55:22;;;;;;;;;;;10.50;59.30;;;;;;5064873;28;19908;-69
2023/05/26 01:57:48;;;;;;;;;;;10.50;59.20;;;;;;5054319;28;20400;-68
2023/05/26 02:00:13;;;;;;;;;;;10.40;59.10;;;;;;5063894;28;19915;-69
2023/05/26 02:02:39;;;;;;;;;;;10.40;59.00;;;;;;5062895;28;20263;-69
2023/05/26 02:05:04;;;;;;;;;;;10.30;59.00;;;;;;5052032;28;20081;-68
2023/05/26 02:07:30;;;;;;;;;;;10.20;59.00;;;;;;5066573;28;19909;-69
2023/05/26 02:09:56;;;;;;;;;;;10.20;59.00;;;;;;5054220;28;19924;-69
2023/05/26 02:12:21;;;;;;;;;;;10.20;59.00;;;;;;5065446;28;20268;-68
2023/05/26 02:14:46;;;;;;;;;;;10.10;59.00;;;;;;5051987;28;19924;-69
2023/05/26 02:17:13;;;;;;;;;;;10.10;59.00;;;;;;5062374;28;20360;-69
2023/05/26 02:19:40;;;;;;;;;;;10.00;58.90;;;;;;5056822;28;19913;-69
2023/05/26 02:22:06;;;;;;;;;;;10.00;59.30;;;;;;5067025;28;19924;-69
2023/05/26 02:24:32;;;;;;;;;;;10.00;59.30;;;;;;5051860;28;19920;-69
2023/05/26 02:26:57;;;;;;;;;;;10.00;59.20;;;;;;5051238;28;19920;-69
2023/05/26 02:29:22;;;;;;;;;;;10.00;59.20;;;;;;5060372;28;20286;-69
2023/05/26 02:31:48;;;;;;;;;;;10.00;59.10;;;;;;5054542;28;19920;-70
2023/05/26 02:34:13;;;;;;;;;;;9.90;59.10;;;;;;5051368;28;19912;-69
2023/05/26 02:36:39;;;;;;;;;;;9.90;59.10;;;;;;5070101;28;20379;-69
2023/05/26 02:39:05;;;;;;;;;;;9.90;59.10;;;;;;5071992;28;19917;-70
2023/05/26 02:41:31;;;;;;;;;;;9.90;59.10;;;;;;5069442;28;20428;-69
2023/05/26 02:43:56;;;;;;;;;;;9.80;59.10;;;;;;5070978;28;19963;-70
2023/05/26 02:46:21;;;;;;;;;;;9.80;59.10;;;;;;5058393;28;19959;-69
2023/05/26 02:48:47;;;;;;;;;;;9.80;59.20;;;;;;5051324;28;19917;-68
2023/05/26 02:51:12;;;;;;;;;;;9.80;59.30;;;;;;5051150;28;19920;-69
2023/05/26 02:53:38;;;;;;;;;;;9.70;59.40;;;;;;5051044;28;19916;-65
2023/05/26 02:56:04;;;;;;;;;;;9.70;59.40;;;;;;5069805;28;19998;-65
2023/05/26 02:58:29;;;;;;;;;;;9.70;59.30;;;;;;5069794;28;19968;-69
2023/05/26 03:00:55;;;;;;;;;;;9.60;59.20;;;;;;5071015;28;19949;-69
2023/05/26 03:03:20;;;;;;;;;;;9.60;59.30;;;;;;5073870;28;19917;-70
2023/05/26 03:05:46;;;;;;;;;;;9.60;59.30;;;;;;5065037;28;19936;-65
2023/05/26 03:08:11;;;;;;;;;;;9.60;59.30;;;;;;5042295;28;20368;-67
2023/05/26 03:10:39;;;;;;;;;;;9.50;59.30;;;;;;5054610;28;20363;-66
2023/05/26 03:13:05;;;;;;;;;;;9.50;59.30;;;;;;5054504;28;19912;-66
2023/05/26 03:15:35;;;;;;;;;;;9.50;59.40;;;;;;5045730;28;20287;-70
2023/05/26 03:18:00;;;;;;;;;;;9.50;59.40;;;;;;5051238;28;19917;-70
2023/05/26 03:20:25;;;;;;;;;;;9.60;59.40;;;;;;5054446;28;19909;-70
2023/05/26 03:22:51;;;;;;;;;;;9.60;59.50;;;;;;5054314;28;19924;-71
2023/05/26 03:25:16;;;;;;;;;;;9.50;59.40;;;;;;5054317;28;19943;-69
2023/05/26 03:27:42;;;;;;;;;;;9.50;59.50;;;;;;5054079;28;19917;-69
2023/05/26 03:30:08;;;;;;;;;;;9.50;59.50;;;;;;5054288;28;20026;-69
2023/05/26 03:32:34;;;;;;;;;;;9.60;59.80;;;;;;5054925;28;20268;-69
2023/05/26 03:34:59;;;;;;;;;;;9.60;60.10;;;;;;5048266;28;19913;-69
2023/05/26 03:37:25;;;;;;;;;;;9.60;60.10;;;;;;5034650;28;19913;-69
2023/05/26 03:39:50;;;;;;;;;;;9.70;60.20;;;;;;5034225;28;19956;-69
2023/05/26 03:42:16;;;;;;;;;;;9.70;60.10;;;;;;5034025;28;19971;-69
2023/05/26 03:44:41;;;;;;;;;;;9.80;60.10;;;;;;5034086;28;19921;-69
2023/05/26 03:47:07;;;;;;;;;;;9.80;60.30;;;;;;5034516;28;20258;-70
2023/05/26 03:49:32;;;;;;;;;;;9.90;60.40;;;;;;5034107;28;20305;-71
2023/05/26 03:51:58;;;;;;;;;;;10.00;60.70;;;;;;5034366;28;19939;-70
2023/05/26 03:54:23;;;;;;;;;;;10.00;60.90;;;;;;5043367;28;19919;-68
2023/05/26 03:56:48;;;;;;;;;;;10.20;61.00;;;;;;5073881;28;19919;-68
2023/05/26 03:59:14;;;;;;;;;;;10.30;61.00;;;;;;5073691;28;19913;-69
2023/05/26 04:01:39;;;;;;;;;;;10.40;60.90;;;;;;5073953;28;20011;-69
2023/05/26 04:04:05;;;;;;;;;;;10.50;61.30;;;;;;5073483;28;19966;-69
2023/05/26 04:06:30;;;;;;;;;;;10.70;61.40;;;;;;5059817;28;20015;-69
2023/05/26 04:08:56;;;;;;;;;;;10.80;61.70;;;;;;5053415;28;19947;-69
2023/05/26 04:11:22;;;;;;;;;;;11.10;61.80;;;;;;5053430;28;19913;-69
2023/05/26 04:13:47;;;;;;;;;;;11.20;61.70;;;;;;5053213;28;19912;-69
2023/05/26 04:16:12;;;;;;;;;;;11.50;61.80;;;;;;5054063;28;19913;-69
2023/05/26 04:18:40;;;;;;;;;;;11.70;61.90;;;;;;5035370;28;19963;-71
2023/05/26 04:21:05;;;;;;;;;;;11.90;61.90;;;;;;5053527;28;19913;-69
2023/05/26 04:23:31;;;;;;;;;;;12.20;62.00;;;;;;5053028;28;19924;-69
2023/05/26 04:25:56;;;;;;;;;;;12.40;61.90;;;;;;5053446;28;19963;-69
2023/05/26 04:28:21;;;;;;;;;;;12.70;62.00;;;;;;5053063;28;19913;-69
2023/05/26 04:30:47;;;;;;;;;;;12.90;61.90;;;;;;5058974;28;20371;-70
2023/05/26 04:33:13;;;;;;;;;;;13.20;61.80;;;;;;5073202;28;19916;-70
2023/05/26 04:35:38;;;;;;;;;;;13.50;61.70;;;;;;5064739;28;19920;-70
2023/05/26 04:38:04;;;;;;;;;;;13.80;61.50;;;;;;5062019;28;20428;-70
2023/05/26 04:40:32;;;;;;;;;;;14.00;61.40;;;;;;5072645;28;19998;-70
2023/05/26 04:42:59;;;;;;;;;;;14.30;61.00;;;;;;5058333;28;19927;-69
2023/05/26 04:45:24;;;;;;;;;;;14.60;60.50;;;;;;5072578;28;20364;-69
2023/05/26 04:47:50;;;;;;;;;;;14.80;60.40;;;;;;5064849;28;19913;-71
2023/05/26 04:50:16;;;;;;;;;;;15.20;59.90;;;;;;5052738;28;19915;-70
2023/05/26 04:52:41;;;;;;;;;;;15.40;58.90;;;;;;5053074;28;19913;-70
2023/05/26 04:55:08;;;;;;;;;;;15.60;57.90;;;;;;5054461;28;20396;-70
2023/05/26 04:57:34;;;;;;;;;;;15.80;57.40;;;;;;5033084;28;19920;-69
2023/05/26 04:59:59;;;;;;;;;;;16.00;57.00;;;;;;5042738;28;20000;-69
2023/05/26 05:02:24;;;;;;;;;;;16.30;56.90;;;;;;5049859;28;19959;-71
2023/05/26 05:04:50;;;;;;;;;;;16.60;54.90;;;;;;5052829;28;19920;-71
2023/05/26 05:07:15;;;;;;;;;;;16.80;53.50;;;;;;5051678;28;19917;-69
2023/05/26 05:09:41;;;;;;;;;;;17.00;52.70;;;;;;5052556;28;19912;-71
2023/05/26 05:12:06;;;;;;;;;;;17.30;51.30;;;;;;5052305;28;20299;-69
2023/05/26 05:14:32;;;;;;;;;;;17.50;50.10;;;;;;5052503;28;20463;-69
2023/05/26 05:16:58;;;;;;;;;;;17.70;49.40;;;;;;5052330;28;19916;-69
2023/05/26 05:19:23;;;;;;;;;;;17.90;48.60;;;;;;5052125;28;20483;-69
2023/05/26 05:21:49;;;;;;;;;;;18.10;47.20;;;;;;5052149;28;20376;-71
2023/05/26 05:24:14;;;;;;;;;;;18.30;46.90;;;;;;5051570;28;19939;-69
2023/05/26 05:26:40;;;;;;;;;;;18.60;46.50;;;;;;5052067;28;20348;-70
2023/05/26 05:29:07;;;;;;;;;;;18.80;45.60;;;;;;5051973;28;19924;-70
2023/05/26 05:31:32;;;;;;;;;;;19.10;44.60;;;;;;5052120;28;19978;-70
2023/05/26 05:33:58;;;;;;;;;;;19.30;44.40;;;;;;5052017;28;19916;-70
2023/05/26 05:36:23;;;;;;;;;;;19.60;42.60;;;;;;5068325;28;19913;-70
2023/05/26 05:38:48;;;;;;;;;;;19.70;42.30;;;;;;5071973;28;20286;-70
2023/05/26 05:41:14;;;;;;;;;;;19.90;41.10;;;;;;5071661;28;19916;-71
2023/05/26 05:43:40;;;;;;;;;;;20.10;41.40;;;;;;5070471;28;20004;-68
2023/05/26 05:46:07;;;;;;;;;;;20.20;40.10;;;;;;5051165;28;21296;-69
2023/05/26 05:48:32;;;;;;;;;;;20.30;39.80;;;;;;5052094;28;19915;-71
2023/05/26 05:50:58;;;;;;;;;;;20.50;39.70;;;;;;5051777;28;19920;-70
2023/05/26 05:53:23;;;;;;;;;;;20.70;39.00;;;;;;5051585;28;19931;-69
2023/05/26 05:55:48;;;;;;;;;;;20.80;38.70;;;;;;5051526;28;19917;-71
2023/05/26 05:58:14;;;;;;;;;;;21.00;37.60;;;;;;5051552;28;19935;-70
2023/05/26 06:00:40;;;;;;;;;;;21.10;37.10;;;;;;5051886;28;19909;-70
2023/05/26 06:03:05;;;;;;;;;;;21.20;36.60;;;;;;5064094;28;20425;-70
2023/05/26 06:05:31;;;;;;;;;;;21.30;36.80;;;;;;5051882;28;19909;-70
2023/05/26 06:07:56;;;;;;;;;;;21.40;36.70;;;;;;5050880;28;20016;-71
2023/05/26 06:10:22;;;;;;;;;;;21.60;36.60;;;;;;5051420;28;19916;-70
2023/05/26 06:12:47;;;;;;;;;;;21.80;36.00;;;;;;5049409;28;19920;-70
2023/05/26 06:15:12;;;;;;;;;;;22.10;35.40;;;;;;5051363;28;19908;-70
2023/05/26 06:17:38;;;;;;;;;;;22.20;35.10;;;;;;5049497;28;19921;-70
2023/05/26 06:20:04;;;;;;;;;;;22.30;34.70;;;;;;5051394;28;19931;-69
2023/05/26 06:22:29;;;;;;;;;;;22.50;34.20;;;;;;5048168;28;20284;-70
2023/05/26 06:24:54;;;;;;;;;;;22.60;34.20;;;;;;5051438;28;19986;-70
2023/05/26 06:27:20;;;;;;;;;;;22.80;33.50;;;;;;5050619;28;19917;-69
2023/05/26 06:29:45;;;;;;;;;;;22.80;32.90;;;;;;5049516;28;20331;-69
2023/05/26 06:32:11;;;;;;;;;;;22.90;33.20;;;;;;5050638;28;19924;-70
2023/05/26 06:34:36;;;;;;;;;;;23.10;32.50;;;;;;5033161;28;20022;-70
2023/05/26 06:37:02;;;;;;;;;;;23.10;32.50;;;;;;5053624;28;19921;-70
2023/05/26 06:39:27;;;;;;;;;;;23.20;32.50;;;;;;5050599;28;20392;-69
2023/05/26 06:41:52;;;;;;;;;;;23.40;32.50;;;;;;5054768;28;19928;-69
2023/05/26 06:44:18;;;;;;;;;;;23.50;32.10;;;;;;5054226;28;19963;-69
2023/05/26 06:46:44;;;;;;;;;;;23.70;31.90;;;;;;5055360;28;19916;-69
2023/05/26 06:49:09;;;;;;;;;;;23.80;31.80;;;;;;5055068;28;20394;-69
2023/05/26 06:51:35;;;;;;;;;;;24.10;31.40;;;;;;5053291;28;19921;-69
2023/05/26 06:54:01;;;;;;;;;;;24.20;30.60;;;;;;5056712;28;19909;-69
2023/05/26 06:56:26;;;;;;;;;;;24.10;30.60;;;;;;5063926;28;20436;-69
2023/05/26 06:58:52;;;;;;;;;;;24.10;30.90;;;;;;5054931;28;19965;-70
2023/05/26 07:01:18;;;;;;;;;;;24.20;30.60;;;;;;5054494;28;19921;-69
2023/05/26 07:03:43;;;;;;;;;;;24.20;30.40;;;;;;5048252;28;21089;-69
2023/05/26 07:06:09;;;;;;;;;;;24.20;30.40;;;;;;5043919;28;20004;-71
2023/05/26 07:08:35;;;;;;;;;;;24.20;30.80;;;;;;5053948;28;20017;-71
2023/05/26 07:11:00;;;;;;;;;;;24.30;30.60;;;;;;5052525;28;19917;-70
2023/05/26 07:13:25;;;;;;;;;;;24.40;30.30;;;;;;5051625;28;19913;-69
2023/05/26 07:15:51;;;;;;;;;;;24.70;30.80;;;;;;5054436;28;19924;-70
2023/05/26 07:18:16;;;;;;;;;;;24.80;29.90;;;;;;5049796;28;19916;-69
2023/05/26 07:20:42;;;;;;;;;;;24.80;29.50;;;;;;5044820;28;19925;-69
2023/05/26 07:23:07;;;;;;;;;;;24.70;29.80;;;;;;5045656;28;19940;-70
2023/05/26 07:25:33;;;;;;;;;;;24.70;29.90;;;;;;5052555;28;19913;-69
2023/05/26 07:27:58;;;;;;;;;;;24.80;30.00;;;;;;5053650;28;19920;-69
2023/05/26 07:30:24;;;;;;;;;;;24.90;30.10;;;;;;5053059;28;19958;-71
2023/05/26 07:32:50;;;;;;;;;;;25.10;29.80;;;;;;5054542;28;20327;-70
2023/05/26 07:35:15;;;;;;;;;;;25.30;29.60;;;;;;5052521;28;19908;-70
2023/05/26 07:37:41;;;;;;;;;;;25.30;29.50;;;;;;5051974;28;19970;-70
2023/05/26 07:40:06;;;;;;;;;;;25.50;29.30;;;;;;5054139;28;19913;-70
2023/05/26 07:42:32;;;;;;;;;;;25.70;29.60;;;;;;5053538;28;20008;-69
2023/05/26 07:44:57;;;;;;;;;;;26.00;29.10;;;;;;5064107;28;20425;-70
2023/05/26 07:47:23;;;;;;;;;;;26.00;28.80;;;;;;5064444;28;20368;-69
2023/05/26 07:49:49;;;;;;;;;;;25.80;28.40;;;;;;5053749;28;20287;-69
2023/05/26 07:52:15;;;;;;;;;;;25.50;28.50;;;;;;5053280;28;19917;-69
2023/05/26 07:54:40;;;;;;;;;;;25.40;29.00;;;;;;5056498;28;19917;-69
2023/05/26 07:57:05;;;;;;;;;;;25.40;29.60;;;;;;5054248;28;20012;-69
2023/05/26 07:59:31;;;;;;;;;;;25.70;29.40;;;;;;5053537;28;19944;-69
2023/05/26 08:01:56;;;;;;;;;;;26.00;29.60;;;;;;5055154;28;20005;-69
2023/05/26 08:04:22;;;;;;;;;;;26.30;28.70;;;;;;5053353;28;19920;-68
2023/05/26 08:06:47;;;;;;;;;;;26.30;28.30;;;;;;5054539;28;19925;-70
2023/05/26 08:09:13;;;;;;;;;;;26.20;28.20;;;;;;5052592;28;19923;-70
2023/05/26 08:11:38;;;;;;;;;;;26.30;28.80;;;;;;5054702;28;19924;-70
2023/05/26 08:14:04;;;;;;;;;;;26.60;28.60;;;;;;5052971;28;19913;-69
2023/05/26 08:16:29;;;;;;;;;;;26.70;27.70;;;;;;5055307;28;19925;-70
2023/05/26 08:18:55;;;;;;;;;;;26.80;28.00;;;;;;5054612;28;19984;-70
2023/05/26 08:21:20;;;;;;;;;;;27.10;28.00;;;;;;5054568;28;19924;-69
2023/05/26 08:23:46;;;;;;;;;;;27.30;27.80;;;;;;5053569;28;19924;-69
2023/05/26 08:26:11;;;;;;;;;;;27.50;27.50;;;;;;5054556;28;19917;-69
2023/05/26 08:28:37;;;;;;;;;;;27.70;26.90;;;;;;5053988;28;19944;-70
2023/05/26 08:31:02;;;;;;;;;;;27.80;27.10;;;;;;5036760;28;20022;-69
2023/05/26 08:33:27;;;;;;;;;;;28.30;26.80;;;;;;5053538;28;20368;-70
2023/05/26 08:35:53;;;;;;;;;;;28.40;26.10;;;;;;5054287;28;19917;-70
2023/05/26 08:38:18;;;;;;;;;;;28.60;26.30;;;;;;5052305;28;20226;-70
2023/05/26 08:40:44;;;;;;;;;;;28.80;25.70;;;;;;5053197;28;20283;-71
2023/05/26 08:43:11;;;;;;;;;;;28.80;25.40;;;;;;5051793;28;20340;-71
2023/05/26 08:45:37;;;;;;;;;;;29.00;26.00;;;;;;5051930;28;19948;-71
2023/05/26 08:48:06;;;;;;;;;;;29.30;25.50;;;;;;5056350;28;19959;-70
2023/05/26 08:50:32;;;;;;;;;;;29.50;25.30;;;;;;5033690;28;20311;-70
2023/05/26 08:52:59;;;;;;;;;;;29.60;25.40;;;;;;5053467;28;19916;-71
2023/05/26 08:55:25;;;;;;;;;;;29.60;24.60;;;;;;5058272;28;19909;-71
2023/05/26 08:57:51;;;;;;;;;;;29.40;24.90;;;;;;5044960;28;19920;-70
2023/05/26 09:00:17;;;;;;;;;;;29.40;25.00;;;;;;5043583;28;20387;-70
2023/05/26 09:02:43;;;;;;;;;;;29.30;24.70;;;;;;5051725;28;19924;-70
2023/05/26 09:05:08;;;;;;;;;;;29.00;24.40;;;;;;5051987;28;20292;-70
2023/05/26 09:07:34;;;;;;;;;;;28.80;24.90;;;;;;5052816;28;19917;-69
2023/05/26 09:10:18;;;;;;;;;;;28.80;24.90;;;;;;5033411;28;19913;-71
2023/05/26 09:12:44;;;;;;;;;;;28.90;24.90;;;;;;5052897;28;19921;-70
2023/05/26 09:15:10;;;;;;;;;;;29.10;25.10;;;;;;5051425;28;19920;-70
2023/05/26 09:17:35;;;;;;;;;;;29.30;24.80;;;;;;5053426;28;19923;-70
2023/05/26 09:20:01;;;;;;;;;;;29.40;24.60;;;;;;5051449;28;19917;-71
2023/05/26 09:22:31;;;;;;;;;;;29.50;24.30;;;;;;5052155;28;19929;-70
2023/05/26 09:24:56;;;;;;;;;;;29.50;24.30;;;;;;5051800;28;19917;-71
2023/05/26 09:27:22;;;;;;;;;;;29.70;24.50;;;;;;5052765;28;20280;-71
2023/05/26 09:29:51;;;;;;;;;;;29.80;24.30;;;;;;5051565;28;20345;-70
2023/05/26 09:32:17;;;;;;;;;;;30.00;23.70;;;;;;5049328;28;19924;-70
2023/05/26 09:34:42;;;;;;;;;;;29.90;23.60;;;;;;5052661;28;20369;-70
2023/05/26 09:37:08;;;;;;;;;;;29.70;23.60;;;;;;5052064;28;20265;-70
2023/05/26 09:39:33;;;;;;;;;;;29.70;23.70;;;;;;5052705;28;19963;-70
2023/05/26 09:42:03;;;;;;;;;;;29.70;23.70;;;;;;5050185;28;20028;-70
2023/05/26 09:44:31;;;;;;;;;;;29.80;23.60;;;;;;5050836;28;20035;-70
2023/05/26 09:46:56;;;;;;;;;;;29.90;23.70;;;;;;5051414;28;19924;-70
2023/05/26 09:49:22;;;;;;;;;;;30.10;23.90;;;;;;5045629;28;19913;-70
2023/05/26 09:51:50;;;;;;;;;;;30.30;23.80;;;;;;5035841;28;19923;-70
2023/05/26 09:54:16;;;;;;;;;;;30.50;23.70;;;;;;5056586;28;19908;-70
2023/05/26 09:56:50;;;;;;;;;;;30.80;23.40;;;;;;5068418;28;19924;-70
2023/05/26 09:59:15;;;;;;;;;;;30.70;22.70;;;;;;5052874;28;19908;-70
2023/05/26 10:01:42;;;;;;;;;;;30.50;22.50;;;;;;5050946;28;20353;-70
2023/05/26 10:04:08;;;;;;;;;;;30.30;22.60;;;;;;5052199;28;19940;-70
2023/05/26 10:06:37;;;;;;;;;;;30.20;22.60;;;;;;5050238;28;19925;-70
2023/05/26 10:09:04;;;;;;;;;;;30.10;22.30;;;;;;5050770;28;19913;-70
2023/05/26 10:11:31;;;;;;;;;;;30.00;22.80;;;;;;5052844;28;20323;-71
2023/05/26 10:13:57;;;;;;;;;;;30.10;22.50;;;;;;5055372;28;19920;-70
2023/05/26 10:16:22;;;;;;;;;;;29.90;22.30;;;;;;5054831;28;19924;-70
2023/05/26 10:18:48;;;;;;;;;;;29.90;22.70;;;;;;5054238;28;19913;-70
2023/05/26 10:21:17;;;;;;;;;;;29.80;22.70;;;;;;5054946;28;19917;-71
2023/05/26 10:23:46;;;;;;;;;;;29.90;23.10;;;;;;5055711;28;20007;-70
2023/05/26 10:26:18;;;;;;;;;;;30.20;22.70;;;;;;5055187;28;19917;-68
2023/05/26 10:28:49;;;;;;;;;;;30.20;22.60;;;;;;5055677;28;19909;-69
2023/05/26 10:31:31;;;;;;;;;;;30.60;22.30;;;;;;5052901;28;20042;-69
2023/05/26 10:33:57;;;;;;;;;;;30.60;21.20;;;;;;5052995;28;19928;-70
2023/05/26 10:36:23;;;;;;;;;;;30.30;21.20;;;;;;5046803;28;19917;-69
2023/05/26 10:38:50;;;;;;;;;;;30.00;21.30;;;;;;5055192;28;20414;-69
2023/05/26 10:41:32;;;;;;;;;;;29.80;22.00;;;;;;5054896;28;20363;-69
2023/05/26 10:43:58;;;;;;;;;;;30.10;22.30;;;;;;5053931;28;20283;-71
2023/05/26 10:46:35;;;;;;;;;;;30.30;22.20;;;;;;5055058;28;19917;-69
2023/05/26 10:49:00;;;;;;;;;;;30.30;21.90;;;;;;5054244;28;20283;-69
2023/05/26 10:51:32;;;;;;;;;;;30.40;22.00;;;;;;5037479;28;20015;-69
2023/05/26 10:53:58;;;;;;;;;;;30.60;22.40;;;;;;5055419;28;19913;-70
2023/05/26 10:56:25;;;;;;;;;;;30.80;22.40;;;;;;5075235;28;19924;-69
2023/05/26 10:58:55;;;;;;;;;;;30.90;21.50;;;;;;5056854;28;20388;-70
2023/05/26 11:01:22;;;;;;;;;;;30.80;21.80;;;;;;5055115;28;19924;-69
2023/05/26 11:03:49;;;;;;;;;;;31.00;21.50;;;;;;5054501;28;19917;-69
2023/05/26 11:06:15;;;;;;;;;;;30.80;20.80;;;;;;5054280;28;20364;-69
2023/05/26 11:08:44;;;;;;;;;;;30.70;21.10;;;;;;5053511;28;19924;-69
2023/05/26 11:11:10;;;;;;;;;;;30.70;21.30;;;;;;5053664;28;19923;-69
2023/05/26 11:13:43;;;;;;;;;;;30.50;21.10;;;;;;5036929;28;19955;-69
2023/05/26 11:16:19;;;;;;;;;;;30.30;21.30;;;;;;5055785;28;19967;-69
2023/05/26 11:18:48;;;;;;;;;;;30.30;21.50;;;;;;5046644;28;19924;-69
2023/05/26 11:21:14;;;;;;;;;;;30.00;21.40;;;;;;5046588;28;19917;-69
2023/05/26 11:23:40;;;;;;;;;;;30.00;21.40;;;;;;5041906;28;20376;-70
2023/05/26 11:26:12;;;;;;;;;;;29.90;21.60;;;;;;5047578;28;20383;-70
2023/05/26 11:28:42;;;;;;;;;;;29.90;21.70;;;;;;5047792;28;20427;-69
2023/05/26 11:31:18;;;;;;;;;;;30.00;21.50;;;;;;5042845;28;20019;-69
2023/05/26 11:33:44;;;;;;;;;;;29.80;21.30;;;;;;5046132;28;19913;-70
2023/05/26 11:36:14;;;;;;;;;;;29.50;20.90;;;;;;5047539;28;20388;-70
2023/05/26 11:38:40;;;;;;;;;;;29.50;21.80;;;;;;5046364;28;19917;-71
2023/05/26 11:41:10;;;;;;;;;;;29.40;21.60;;;;;;5053908;28;19917;-70
2023/05/26 11:43:36;;;;;;;;;;;29.30;21.50;;;;;;5052770;28;19956;-70
2023/05/26 11:46:03;;;;;;;;;;;29.20;21.50;;;;;;5053818;28;19967;-71
2023/05/26 11:48:35;;;;;;;;;;;29.00;21.60;;;;;;5052662;28;19979;-71
2023/05/26 11:51:03;;;;;;;;;;;28.80;21.80;;;;;;5052757;28;19917;-70
2023/05/26 11:53:29;;;;;;;;;;;28.70;22.30;;;;;;5053843;28;20303;-69
2023/05/26 11:56:02;;;;;;;;;;;28.60;22.90;;;;;;5071397;28;20328;-69
2023/05/26 11:58:28;;;;;;;;;;;28.60;23.20;;;;;;5059103;28;19916;-68
2023/05/26 12:00:57;;;;;;;;;;;28.50;23.10;;;;;;5036567;28;20466;-69
2023/05/26 12:03:23;;;;;;;;;;;28.30;22.70;;;;;;5052967;28;19916;-70
2023/05/26 12:05:48;;;;;;;;;;;28.00;22.80;;;;;;5053835;28;20313;-70
2023/05/26 12:08:14;;;;;;;;;;;27.80;22.90;;;;;;5052555;28;20003;-70
2023/05/26 12:10:40;;;;;;;;;;;27.80;23.60;;;;;;5039879;28;20305;-70
2023/05/26 12:13:06;;;;;;;;;;;27.80;23.70;;;;;;5050922;28;20006;-70
2023/05/26 12:15:32;;;;;;;;;;;28.00;23.90;;;;;;5052673;28;19913;-69
2023/05/26 12:18:00;;;;;;;;;;;27.90;24.40;;;;;;5055978;28;19924;-69
2023/05/26 12:20:26;;;;;;;;;;;27.90;24.40;;;;;;5056928;28;19921;-69
2023/05/26 12:22:51;;;;;;;;;;;28.00;24.50;;;;;;5051477;28;19921;-70
2023/05/26 12:25:27;;;;;;;;;;;27.90;23.90;;;;;;5050939;28;19909;-70
2023/05/26 12:27:53;;;;;;;;;;;27.70;24.00;;;;;;5051314;28;19924;-69
2023/05/26 12:30:26;;;;;;;;;;;27.50;24.10;;;;;;5032528;28;19916;-69
2023/05/26 12:32:52;;;;;;;;;;;27.30;24.50;;;;;;5065711;28;19917;-69
2023/05/26 12:35:17;;;;;;;;;;;27.20;24.80;;;;;;5046767;28;19919;-71
2023/05/26 12:37:43;;;;;;;;;;;27.20;25.00;;;;;;5043474;28;20339;-69
2023/05/26 12:40:09;;;;;;;;;;;27.30;24.20;;;;;;5041462;28;19917;-69
2023/05/26 12:42:35;;;;;;;;;;;27.30;24.60;;;;;;5036441;28;20016;-69
2023/05/26 12:45:01;;;;;;;;;;;27.40;24.60;;;;;;5044571;28;19909;-70
2023/05/26 12:47:26;;;;;;;;;;;27.30;25.00;;;;;;5048057;28;19917;-69
2023/05/26 12:49:51;;;;;;;;;;;27.30;25.00;;;;;;5050799;28;20432;-70
2023/05/26 12:52:17;;;;;;;;;;;27.30;24.40;;;;;;5049518;28;19928;-70
2023/05/26 12:54:42;;;;;;;;;;;27.30;24.60;;;;;;5053522;28;19919;-70
2023/05/26 12:57:08;;;;;;;;;;;27.30;25.00;;;;;;5050600;28;19921;-70
2023/05/26 12:59:34;;;;;;;;;;;27.40;24.80;;;;;;5050722;28;20007;-70
2023/05/26 13:02:00;;;;;;;;;;;27.60;25.10;;;;;;5047012;28;20314;-70
2023/05/26 13:04:26;;;;;;;;;;;27.80;24.90;;;;;;5049927;28;19960;-70
2023/05/26 13:06:52;;;;;;;;;;;27.70;24.40;;;;;;5050392;28;20390;-70
2023/05/26 13:09:18;;;;;;;;;;;27.40;24.80;;;;;;5039384;28;19910;-70
2023/05/26 13:11:43;;;;;;;;;;;27.50;24.80;;;;;;5034542;28;19932;-70
2023/05/26 13:14:09;;;;;;;;;;;27.50;24.70;;;;;;5044270;28;20395;-70
2023/05/26 13:16:35;;;;;;;;;;;27.60;25.10;;;;;;5050079;28;20273;-70
2023/05/26 13:19:00;;;;;;;;;;;27.50;25.10;;;;;;5040862;28;19909;-70
2023/05/26 13:21:26;;;;;;;;;;;27.30;25.50;;;;;;5047898;28;19917;-70
2023/05/26 13:23:51;;;;;;;;;;;27.20;25.40;;;;;;5041215;28;19913;-70
2023/05/26 13:26:17;;;;;;;;;;;27.20;25.70;;;;;;5049305;28;19917;-70
2023/05/26 13:28:42;;;;;;;;;;;27.40;25.60;;;;;;5050781;28;20375;-70
2023/05/26 13:31:07;;;;;;;;;;;27.50;25.50;;;;;;5050143;28;19928;-70
2023/05/26 13:33:33;;;;;;;;;;;27.40;25.30;;;;;;5041079;28;19920;-70
2023/05/26 13:35:58;;;;;;;;;;;27.20;25.00;;;;;;5045239;28;19921;-70
2023/05/26 13:38:24;;;;;;;;;;;27.00;25.40;;;;;;5044555;28;19917;-70
2023/05/26 13:40:49;;;;;;;;;;;27.00;26.10;;;;;;5049903;28;19921;-70
2023/05/26 13:43:15;;;;;;;;;;;26.90;25.50;;;;;;5041863;28;19917;-70
2023/05/26 13:45:40;;;;;;;;;;;26.90;25.60;;;;;;5047170;28;19912;-70
2023/05/26 13:48:07;;;;;;;;;;;26.90;25.40;;;;;;5035760;28;19913;-70
2023/05/26 13:50:32;;;;;;;;;;;26.90;25.20;;;;;;5039700;28;19951;-70
2023/05/26 13:52:58;;;;;;;;;;;26.70;25.00;;;;;;5046843;28;19952;-70
2023/05/26 13:55:24;;;;;;;;;;;26.40;25.70;;;;;;5056605;28;19919;-69
2023/05/26 13:57:49;;;;;;;;;;;26.40;26.40;;;;;;5051608;28;19970;-69
2023/05/26 14:00:15;;;;;;;;;;;26.50;26.50;;;;;;5052372;28;19908;-69
2023/05/26 14:02:40;;;;;;;;;;;26.60;26.60;;;;;;5046476;28;19947;-71
2023/05/26 14:05:06;;;;;;;;;;;26.60;26.40;;;;;;5045006;28;19913;-70
2023/05/26 14:07:31;;;;;;;;;;;26.50;26.90;;;;;;5050659;28;19970;-71
2023/05/26 14:09:57;;;;;;;;;;;26.40;27.10;;;;;;5045922;28;19912;-70
2023/05/26 14:12:23;;;;;;;;;;;26.30;26.70;;;;;;5043068;28;19925;-69
2023/05/26 14:14:48;;;;;;;;;;;26.30;26.70;;;;;;5045282;28;19921;-69